Latest Coastal Weather Observations for Roebourne Airport

IDW60701

Issued at 10:32 am WST Friday 29 May 2015 (issued every 10 minutes, with the page automatically refreshed every 10 minutes)

About coastal observations | Map of coastal stations | Coastal observations for WA | Marine services | Other Formats
Station Details ID: 004090 Name: ROEBOURNE AERO Lat: -20.76 Lon: 117.16 Height: 10.7 m
Data from the previous 72 hours. | See also: Recent months at Roebourne Airport
Date/Time
WST
Temp

°C
Wind Pressure Rain
since 9am
mm
Weather Cloud Vis
km
Sea
Height
m
Swell
Dir
 
Speed
knots
Gust
knots
hPa Trend Height
m
Period
s
Dir
29/10:30am 23.5 ESE 8 10 1017.5 - 0.0 - - - - - - -
29/10:00am 22.5 ESE 9 11 1017.9 - 0.0 - - - - - - -
29/09:30am 22.2 SE 8 9 1018.1 - 0.0 - - - - - - -
29/09:00am 21.6 SE 5 7 1018.0 - 1.6 - - - - - - -
29/08:30am 20.8 ESE 4 6 1017.6 - 1.6 - - - - - - -
29/08:00am 20.2 CALM 0 0 1017.4 - 1.6 - - - - - - -
29/07:30am 19.7 SSE 3 4 1017.0 - 1.6 - - - - - - -
29/07:00am 19.5 SE 2 3 1016.7 - 1.6 - - - - - - -
29/06:30am 19.3 CALM 0 3 1016.3 - 1.6 - - - - - - -
29/06:00am 19.5 S 5 6 1016.2 - 1.6 - - - - - - -
29/05:30am 19.5 S 4 6 1016.0 - 1.6 - - - - - - -
29/05:00am 19.6 SSE 6 7 1015.7 - 1.6 - - - - - - -
29/04:30am 19.6 ESE 4 5 1015.6 - 1.6 - - - - - - -
29/04:00am 19.7 ESE 5 6 1015.5 - 1.6 - - - - - - -
29/03:30am 19.8 ESE 4 6 1015.5 - 1.6 - - - - - - -
29/03:00am 20.1 ESE 6 8 1015.4 - 1.6 - - - - - - -
29/02:30am 20.2 ESE 7 8 1015.6 - 1.6 - - - - - - -
29/02:00am 20.2 SE 6 7 1015.9 - 1.6 - - - - - - -
29/01:30am 20.2 ESE 5 7 1016.1 - 1.6 - - - - - - -
29/01:00am 20.2 ESE 5 6 1016.3 - 1.6 - - - - - - -
29/12:30am 20.2 E 5 7 1016.2 - 1.6 - - - - - - -
29/12:00am 20.2 ESE 5 7 1016.2 - 1.6 - - - - - - -
 
Date/Time
WST
Temp

°C
Wind Pressure Rain
since 9am
mm
Weather Cloud Vis
km
Sea
Height
m
Swell
Dir
 
Speed
knots
Gust
knots
hPa Trend Height
m
Period
s
Dir
28/11:30pm 20.3 E 4 5 1016.4 - 1.6 - - - - - - -
28/11:00pm 20.3 ESE 5 7 1016.6 - 1.6 - - - - - - -
28/10:30pm 20.4 ESE 6 7 1016.9 - 1.6 - - - - - - -
28/10:00pm 20.4 ESE 5 6 1016.7 - 1.6 - - - - - - -
28/09:30pm 20.5 ESE 6 7 1016.7 - 1.6 - - - - - - -
28/09:00pm 20.4 SE 6 8 1016.6 - 1.6 - - - - - - -
28/08:30pm 20.5 SE 6 8 1016.5 - 1.6 - - - - - - -
28/08:00pm 20.4 SE 7 8 1016.3 - 1.6 - - - - - - -
28/07:30pm 20.5 SE 6 7 1016.1 - 1.6 - - - - - - -
28/07:00pm 20.5 ESE 5 6 1016.0 - 1.6 - - - - - - -
28/06:30pm 20.4 SE 6 8 1015.5 - 1.6 - - - - - - -
28/06:00pm 20.4 SE 6 7 1015.1 - 1.6 - - - - - - -
28/05:30pm 20.5 SE 8 11 1014.8 - 1.6 - - - - - - -
28/05:00pm 20.7 SE 9 11 1014.7 - 1.6 - - - - - - -
28/04:30pm 20.6 SSE 8 9 1015.0 - 1.6 - - - - - - -
28/04:00pm 20.4 SE 8 10 1014.8 - 1.6 - - - - - - -
28/03:30pm 20.6 SE 8 11 1014.6 - 1.4 - - - - - - -
28/03:00pm 20.5 ESE 7 9 1014.4 - 1.0 Rain - - - - - -
28/02:30pm 20.5 SE 8 10 1014.5 - 0.4 - - - - - - -
28/02:00pm 20.8 SSE 10 12 1014.5 - 0.4 - - - - - - -
28/01:30pm 20.8 SE 9 12 1014.6 - 0.4 - - - - - - -
28/01:00pm 21.1 SE 8 10 1015.1 - 0.2 - - - - - - -
28/12:30pm 21.4 ESE 8 11 1015.3 - 0.0 - - - - - - -
28/12:00pm 22.0 SE 9 11 1015.2 - 0.0 - - - - - - -
28/11:30am 20.5 SE 8 10 1015.7 - 0.0 - - - - - - -
28/11:00am 20.4 ESE 8 10 1016.3 - 0.0 - - - - - - -
28/10:30am 20.2 ESE 8 10 1016.5 - 0.0 - - - - - - -
28/10:00am 19.9 ESE 9 11 1016.4 - 0.0 - - - - - - -
28/09:30am 19.9 ESE 9 12 1016.7 - 0.0 - - - - - - -
28/09:00am 19.3 ESE 9 12 1016.5 - 46.8 - - - - - - -
28/08:30am 19.1 ESE 9 11 1016.5 - 46.8 - - - - - - -
28/08:00am 19.0 ESE 9 11 1016.0 - 46.8 - - - - - - -
28/07:30am 18.8 ESE 8 10 1016.0 - 46.8 - - - - - - -
28/07:00am 18.5 ESE 7 9 1015.6 - 46.8 - - - - - - -
28/06:30am 18.5 E 9 12 1015.1 - 46.8 - - - - - - -
28/06:00am 18.6 ESE 7 10 1015.0 - 46.8 - - - - - - -
28/05:30am 18.6 E 9 12 1014.6 - 46.8 - - - - - - -
28/05:00am 18.6 E 9 12 1014.7 - 46.8 - - - - - - -
28/04:30am 18.7 E 8 10 1014.8 - 46.8 - - - - - - -
28/04:00am 18.8 E 8 11 1014.6 - 46.8 - - - - - - -
28/03:30am 19.1 E 8 11 1014.5 - 46.8 - - - - - - -
28/03:00am 19.2 ENE 11 14 1014.3 - 46.8 - - - - - - -
28/02:30am 19.3 ENE 11 14 1014.5 - 46.8 - - - - - - -
28/02:00am 19.0 ENE 9 11 1014.8 - 46.8 - - - - - - -
28/01:30am 19.0 ENE 10 13 1014.8 - 46.8 - - - - - - -
28/01:00am 19.1 ENE 8 10 1014.8 - 46.4 - - - - - - -
28/12:30am 19.1 E 8 11 1015.3 - 44.2 - - - - - - -
28/12:00am 19.1 E 8 15 1015.0 - 43.4 Recent precip. - - - - - -
 
Date/Time
WST
Temp

°C
Wind Pressure Rain
since 9am
mm
Weather Cloud Vis
km
Sea
Height
m
Swell
Dir
 
Speed
knots
Gust
knots
hPa Trend Height
m
Period
s
Dir
27/11:30pm 18.9 E 7 10 1015.3 - 43.2 - - - - - - -
27/11:00pm 18.9 ENE 7 10 1015.8 - 42.4 - - - - - - -
27/10:30pm 18.9 E 7 10 1015.7 - 41.2 - - - - - - -
27/10:00pm 18.9 E 11 14 1015.5 - 41.2 - - - - - - -
27/09:30pm 18.9 ESE 11 14 1015.8 - 41.2 - - - - - - -
27/09:00pm 19.0 ESE 11 15 1016.2 - 41.2 - - - - - - -
27/08:30pm 19.1 ESE 8 11 1016.4 - 41.2 - - - - - - -
27/08:00pm 19.2 ESE 7 9 1016.2 - 41.2 - - - - - - -
27/07:30pm 19.2 ESE 5 8 1016.0 - 41.2 - - - - - - -
27/07:00pm 19.1 ESE 5 7 1015.8 - 41.2 - - - - - - -
27/06:30pm 19.1 ESE 3 5 1015.6 - 40.4 - - - - - - -
27/06:00pm 19.2 SE 8 11 1014.9 - 37.0 Rain - - - - - -
27/05:30pm 19.2 SE 9 11 1014.3 - 30.8 - - - - - - -
27/05:00pm 19.2 SE 9 11 1013.9 - 24.2 - - - - - - -
27/04:30pm 19.2 SE 10 14 1013.8 - 22.2 - - - - - - -
27/04:00pm 19.4 SE 10 13 1013.6 - 16.8 - - - - - - -
27/03:30pm 19.5 SE 9 12 1014.0 - 14.4 - - - - - - -
27/03:00pm 19.7 ESE 11 15 1013.7 - 11.8 - - - - - - -
27/02:30pm 19.5 ESE 12 16 1013.3 - 11.8 - - - - - - -
27/02:00pm 19.3 ESE 11 15 1013.8 - 11.8 - - - - - - -
27/01:30pm 19.5 SE 13 17 1013.5 - 11.2 - - - - - - -
27/01:00pm 19.3 ESE 11 14 1014.5 - 10.6 - - - - - - -
27/12:30pm 19.1 ESE 11 15 1014.5 - 9.4 - - - - - - -
27/12:00pm 19.3 SE 9 13 1015.2 - 8.8 Recent precip. - - - - - -
27/11:30am 19.1 SE 9 12 1015.6 - 8.8 - - - - - - -
27/11:00am 18.6 ESE 11 14 1015.7 - 8.6 - - - - - - -
27/10:30am 18.7 SSE 10 16 1016.2 - 5.2 - - - - - - -
27/10:00am 18.5 SE 9 13 1016.4 - 4.8 - - - - - - -
27/09:30am 18.3 ESE 8 11 1017.0 - 3.2 - - - - - - -
27/09:00am 18.8 ESE 5 7 1017.2 - 7.2 Recent precip. - - - - - -
27/08:30am 18.4 ESE 7 9 1016.7 - 7.2 - - - - - - -
27/08:00am 18.2 SE 8 10 1016.3 - 6.2 - - - - - - -
27/07:30am 18.3 ESE 7 10 1016.1 - 5.2 - - - - - - -
27/07:00am 18.4 SE 6 8 1016.0 - 3.6 - - - - - - -
27/06:30am 18.6 ESE 8 10 1015.7 - 1.8 - - - - - - -
27/06:00am 19.1 ESE 8 12 1015.6 - 0.2 Rain - - - - - -
27/05:30am 20.2 ESE 9 13 1015.1 - 0.0 - - - - - - -
27/05:00am 20.3 ESE 9 11 1014.8 - 0.0 - - - - - - -
27/04:30am 20.5 ESE 10 13 1014.9 - 0.0 - - - - - - -
27/04:00am 20.2 SE 9 11 1014.8 - 0.0 - - - - - - -
27/03:30am 19.3 ESE 7 8 1015.0 - 0.0 - - - - - - -
27/03:00am 19.5 E 7 9 1015.1 - 0.0 - - - - - - -
27/02:30am 19.6 ESE 7 8 1015.3 - 0.0 - - - - - - -
27/02:00am 19.3 ESE 6 7 1015.7 - 0.0 - - - - - - -
27/01:30am 19.2 ESE 6 8 1015.7 - 0.0 - - - - - - -
27/01:00am 19.6 ESE 6 8 1016.2 - 0.0 - - - - - - -
27/12:30am 19.8 ESE 8 9 1016.3 - 0.0 - - - - - - -
27/12:00am 19.9 ESE 8 10 1016.5 - 0.0 - - - - - - -
 
Date/Time
WST
Temp

°C
Wind Pressure Rain
since 9am
mm
Weather Cloud Vis
km
Sea
Height
m
Swell
Dir
 
Speed
knots
Gust
knots
hPa Trend Height
m
Period
s
Dir
26/11:30pm 19.6 ESE 8 9 1016.6 - 0.0 - - - - - - -
26/11:00pm 19.5 ESE 6 7 1017.3 - 0.0 - - - - - - -
26/10:30pm 19.7 ESE 4 5 1017.4 - 0.0 - - - - - - -
26/10:00pm 19.9 ESE 5 6 1017.6 - 0.0 - - - - - - -
26/09:30pm 20.4 ESE 6 7 1017.4 - 0.0 - - - - - - -
26/09:00pm 20.9 ESE 6 7 1017.5 - 0.0 - - - - - - -
26/08:30pm 21.0 ESE 6 7 1017.5 - 0.0 - - - - - - -
26/08:00pm 21.4 E 5 5 1017.2 - 0.0 - - - - - - -
26/07:30pm 21.7 E 5 6 1016.9 - 0.0 - - - - - - -
26/07:00pm 22.2 ENE 6 7 1016.5 - 0.0 - - - - - - -
26/06:30pm 22.7 ENE 7 8 1016.0 - 0.0 - - - - - - -
26/06:00pm 23.2 ENE 7 8 1016.0 - 0.0 - - - - - - -
26/05:30pm 24.0 ENE 8 10 1015.8 - 0.0 - - - - - - -
26/05:00pm 24.5 ENE 9 11 1015.7 - 0.0 - - - - - - -
26/04:30pm 25.0 ENE 11 13 1015.4 - 0.0 - - - - - - -
26/04:00pm 25.3 ENE 11 14 1015.4 - 0.0 - - - - - - -
26/03:30pm 25.7 ENE 12 16 1015.3 - 0.0 - - - - - - -
26/03:00pm 26.0 ENE 13 16 1015.1 - 0.0 - - - - - - -
26/02:30pm 25.7 ENE 12 16 1015.3 - 0.0 - - - - - - -
26/02:00pm 26.9 ENE 12 17 1015.2 - 0.0 - - - - - - -
26/01:30pm 26.3 ENE 11 14 1015.6 - 0.0 - - - - - - -
26/01:00pm 25.9 E 11 18 1016.1 - 0.0 - - - - - - -
26/12:30pm 25.7 E 11 15 1016.3 - 0.0 - - - - - - -
26/12:00pm 25.5 E 12 16 1016.7 - 0.0 - - - - - - -
26/11:30am 24.5 ESE 12 15 1017.1 - 0.0 - - - - - - -
26/11:00am 23.6 E 12 16 1017.4 - 0.0 - - - - - - -

Other Formats:

Comma delimited format used in spreadsheet applications
http://www.bom.gov.au/fwo/IDW60701/IDW60701.94308.axf

JavaScript Object Notation format (JSON) in row-major order
http://www.bom.gov.au/fwo/IDW60701/IDW60701.94308.json